sensor_id;sensor_type;location;lat;lon;timestamp;P1;durP1;ratioP1;P2;durP2;ratioP2
21804;SDS011;11064;47.102;15.452;2023-12-20T05:01:03;9.07;;;4.60;;
21804;SDS011;11064;47.102;15.452;2023-12-20T05:03:31;8.27;;;4.43;;
21804;SDS011;11064;47.102;15.452;2023-12-20T05:05:57;6.97;;;4.03;;
21804;SDS011;11064;47.102;15.452;2023-12-20T05:08:23;5.97;;;3.72;;
21804;SDS011;11064;47.102;15.452;2023-12-20T05:10:50;6.57;;;3.58;;
21804;SDS011;11064;47.102;15.452;2023-12-20T05:13:16;6.85;;;3.78;;
21804;SDS011;11064;47.102;15.452;2023-12-20T05:15:42;7.05;;;3.80;;
21804;SDS011;11064;47.102;15.452;2023-12-20T05:18:08;7.13;;;3.55;;
21804;SDS011;11064;47.102;15.452;2023-12-20T05:20:34;7.75;;;4.43;;
21804;SDS011;11064;47.102;15.452;2023-12-20T05:23:00;8.52;;;4.25;;
21804;SDS011;11064;47.102;15.452;2023-12-20T05:25:26;8.75;;;4.20;;
21804;SDS011;11064;47.102;15.452;2023-12-20T05:27:52;7.97;;;4.30;;
21804;SDS011;11064;47.102;15.452;2023-12-20T05:30:18;7.25;;;4.10;;
21804;SDS011;11064;47.102;15.452;2023-12-20T05:32:44;8.75;;;4.50;;
21804;SDS011;11064;47.102;15.452;2023-12-20T05:35:10;6.55;;;3.92;;
21804;SDS011;11064;47.102;15.452;2023-12-20T05:37:36;8.32;;;4.10;;
21804;SDS011;11064;47.102;15.452;2023-12-20T05:40:01;9.68;;;4.88;;
21804;SDS011;11064;47.102;15.452;2023-12-20T05:42:27;7.32;;;3.97;;
21804;SDS011;11064;47.102;15.452;2023-12-20T05:44:53;6.47;;;4.15;;
21804;SDS011;11064;47.102;15.452;2023-12-20T05:47:19;8.68;;;4.45;;
21804;SDS011;11064;47.102;15.452;2023-12-20T05:49:45;7.95;;;4.30;;
21804;SDS011;11064;47.102;15.452;2023-12-20T05:52:11;8.77;;;4.80;;
21804;SDS011;11064;47.102;15.452;2023-12-20T05:54:36;6.15;;;4.22;;
21804;SDS011;11064;47.102;15.452;2023-12-20T05:57:02;7.57;;;4.35;;
21804;SDS011;11064;47.102;15.452;2023-12-20T05:59:28;8.45;;;4.25;;
21804;SDS011;11064;47.102;15.452;2023-12-20T06:01:54;8.38;;;4.53;;
21804;SDS011;11064;47.102;15.452;2023-12-20T06:04:20;8.65;;;4.25;;
21804;SDS011;11064;47.102;15.452;2023-12-20T06:06:46;8.60;;;4.22;;
21804;SDS011;11064;47.102;15.452;2023-12-20T06:09:12;6.35;;;3.53;;
21804;SDS011;11064;47.102;15.452;2023-12-20T06:11:38;11.15;;;4.60;;
21804;SDS011;11064;47.102;15.452;2023-12-20T06:14:03;7.47;;;4.10;;
21804;SDS011;11064;47.102;15.452;2023-12-20T06:16:30;8.00;;;4.07;;
21804;SDS011;11064;47.102;15.452;2023-12-20T06:18:55;8.68;;;4.15;;
21804;SDS011;11064;47.102;15.452;2023-12-20T06:21:21;8.18;;;4.10;;
21804;SDS011;11064;47.102;15.452;2023-12-20T06:23:47;6.70;;;3.80;;
21804;SDS011;11064;47.102;15.452;2023-12-20T06:26:13;6.72;;;3.55;;
21804;SDS011;11064;47.102;15.452;2023-12-20T06:28:39;7.55;;;3.92;;
21804;SDS011;11064;47.102;15.452;2023-12-20T06:31:05;8.13;;;4.20;;
21804;SDS011;11064;47.102;15.452;2023-12-20T06:33:30;7.00;;;4.07;;
21804;SDS011;11064;47.102;15.452;2023-12-20T06:35:56;7.05;;;4.00;;
21804;SDS011;11064;47.102;15.452;2023-12-20T06:38:22;6.53;;;3.67;;
21804;SDS011;11064;47.102;15.452;2023-12-20T06:40:48;7.80;;;4.00;;
21804;SDS011;11064;47.102;15.452;2023-12-20T06:43:14;8.07;;;4.10;;
21804;SDS011;11064;47.102;15.452;2023-12-20T06:45:40;7.10;;;3.80;;
21804;SDS011;11064;47.102;15.452;2023-12-20T06:48:06;6.03;;;3.63;;
21804;SDS011;11064;47.102;15.452;2023-12-20T06:50:32;7.50;;;4.07;;
21804;SDS011;11064;47.102;15.452;2023-12-20T06:52:58;7.55;;;4.13;;
21804;SDS011;11064;47.102;15.452;2023-12-20T06:55:23;9.23;;;4.25;;
21804;SDS011;11064;47.102;15.452;2023-12-20T06:57:49;6.63;;;3.88;;
21804;SDS011;11064;47.102;15.452;2023-12-20T07:00:15;8.75;;;4.28;;
21804;SDS011;11064;47.102;15.452;2023-12-20T07:02:43;8.05;;;4.25;;
21804;SDS011;11064;47.102;15.452;2023-12-20T07:05:09;8.25;;;4.13;;
21804;SDS011;11064;47.102;15.452;2023-12-20T07:07:34;6.47;;;3.80;;
21804;SDS011;11064;47.102;15.452;2023-12-20T07:10:00;7.75;;;4.20;;
21804;SDS011;11064;47.102;15.452;2023-12-20T07:12:26;8.02;;;4.35;;
21804;SDS011;11064;47.102;15.452;2023-12-20T07:14:52;7.55;;;4.63;;
21804;SDS011;11064;47.102;15.452;2023-12-20T07:17:17;8.73;;;3.97;;
21804;SDS011;11064;47.102;15.452;2023-12-20T07:19:43;7.88;;;4.30;;
21804;SDS011;11064;47.102;15.452;2023-12-20T07:22:09;6.70;;;4.00;;
21804;SDS011;11064;47.102;15.452;2023-12-20T07:24:35;6.53;;;3.85;;
21804;SDS011;11064;47.102;15.452;2023-12-20T07:27:01;7.28;;;3.50;;
21804;SDS011;11064;47.102;15.452;2023-12-20T07:29:27;7.60;;;4.50;;
21804;SDS011;11064;47.102;15.452;2023-12-20T07:31:53;7.07;;;4.10;;
21804;SDS011;11064;47.102;15.452;2023-12-20T07:34:20;6.32;;;3.78;;
21804;SDS011;11064;47.102;15.452;2023-12-20T07:36:46;5.30;;;3.55;;
21804;SDS011;11064;47.102;15.452;2023-12-20T07:39:12;9.20;;;3.88;;
21804;SDS011;11064;47.102;15.452;2023-12-20T07:41:39;7.38;;;3.80;;
21804;SDS011;11064;47.102;15.452;2023-12-20T07:44:05;6.30;;;3.60;;
21804;SDS011;11064;47.102;15.452;2023-12-20T07:46:31;6.85;;;3.65;;
21804;SDS011;11064;47.102;15.452;2023-12-20T07:48:57;7.10;;;3.80;;
21804;SDS011;11064;47.102;15.452;2023-12-20T07:51:23;6.32;;;3.60;;
21804;SDS011;11064;47.102;15.452;2023-12-20T07:53:49;6.72;;;3.58;;
21804;SDS011;11064;47.102;15.452;2023-12-20T07:56:16;5.38;;;3.22;;
21804;SDS011;11064;47.102;15.452;2023-12-20T07:58:42;5.85;;;3.50;;
21804;SDS011;11064;47.102;15.452;2023-12-20T08:01:09;6.45;;;4.10;;
21804;SDS011;11064;47.102;15.452;2023-12-20T08:03:35;5.68;;;3.45;;
21804;SDS011;11064;47.102;15.452;2023-12-20T08:06:02;7.90;;;3.42;;
21804;SDS011;11064;47.102;15.452;2023-12-20T08:08:27;5.32;;;3.47;;
21804;SDS011;11064;47.102;15.452;2023-12-20T08:10:53;4.28;;;3.00;;
21804;SDS011;11064;47.102;15.452;2023-12-20T08:13:19;7.07;;;3.65;;
21804;SDS011;11064;47.102;15.452;2023-12-20T08:15:50;7.82;;;3.67;;
21804;SDS011;11064;47.102;15.452;2023-12-20T08:18:15;4.63;;;2.95;;
21804;SDS011;11064;47.102;15.452;2023-12-20T08:20:41;5.85;;;3.45;;
21804;SDS011;11064;47.102;15.452;2023-12-20T08:23:07;6.80;;;2.90;;
21804;SDS011;11064;47.102;15.452;2023-12-20T08:25:33;7.47;;;3.63;;
21804;SDS011;11064;47.102;15.452;2023-12-20T08:27:59;5.93;;;3.30;;
21804;SDS011;11064;47.102;15.452;2023-12-20T08:30:24;6.68;;;3.80;;
21804;SDS011;11064;47.102;15.452;2023-12-20T08:32:50;8.23;;;4.28;;
21804;SDS011;11064;47.102;15.452;2023-12-20T08:35:16;9.68;;;4.00;;
21804;SDS011;11064;47.102;15.452;2023-12-20T08:37:43;4.28;;;2.60;;
21804;SDS011;11064;47.102;15.452;2023-12-20T08:40:08;5.15;;;3.17;;
21804;SDS011;11064;47.102;15.452;2023-12-20T08:42:35;9.65;;;4.93;;
21804;SDS011;11064;47.102;15.452;2023-12-20T08:45:00;7.00;;;3.90;;
21804;SDS011;11064;47.102;15.452;2023-12-20T08:47:28;7.35;;;4.40;;
21804;SDS011;11064;47.102;15.452;2023-12-20T08:49:54;5.55;;;3.22;;
21804;SDS011;11064;47.102;15.452;2023-12-20T08:52:24;8.50;;;4.13;;
21804;SDS011;11064;47.102;15.452;2023-12-20T08:54:52;9.23;;;4.40;;
21804;SDS011;11064;47.102;15.452;2023-12-20T08:57:22;6.47;;;3.47;;
21804;SDS011;11064;47.102;15.452;2023-12-20T08:59:51;6.38;;;2.85;;
21804;SDS011;11064;47.102;15.452;2023-12-20T09:02:17;5.55;;;3.28;;
21804;SDS011;11064;47.102;15.452;2023-12-20T09:04:43;4.00;;;2.58;;
21804;SDS011;11064;47.102;15.452;2023-12-20T09:07:22;5.38;;;3.00;;
21804;SDS011;11064;47.102;15.452;2023-12-20T09:09:52;4.20;;;2.80;;
21804;SDS011;11064;47.102;15.452;2023-12-20T09:12:19;7.45;;;2.95;;
21804;SDS011;11064;47.102;15.452;2023-12-20T09:14:49;3.85;;;2.67;;
21804;SDS011;11064;47.102;15.452;2023-12-20T09:17:16;4.72;;;3.17;;
21804;SDS011;11064;47.102;15.452;2023-12-20T09:19:43;5.45;;;3.13;;
21804;SDS011;11064;47.102;15.452;2023-12-20T09:22:09;5.60;;;2.95;;
21804;SDS011;11064;47.102;15.452;2023-12-20T09:24:36;6.28;;;3.42;;
21804;SDS011;11064;47.102;15.452;2023-12-20T09:27:03;5.38;;;3.15;;
21804;SDS011;11064;47.102;15.452;2023-12-20T09:29:30;6.35;;;2.67;;
21804;SDS011;11064;47.102;15.452;2023-12-20T09:31:56;5.63;;;3.13;;
21804;SDS011;11064;47.102;15.452;2023-12-20T09:34:23;5.15;;;2.90;;
21804;SDS011;11064;47.102;15.452;2023-12-20T09:36:50;6.40;;;3.03;;
21804;SDS011;11064;47.102;15.452;2023-12-20T09:39:17;5.68;;;2.88;;
21804;SDS011;11064;47.102;15.452;2023-12-20T09:41:45;7.93;;;3.63;;
21804;SDS011;11064;47.102;15.452;2023-12-20T09:44:31;6.20;;;4.07;;
21804;SDS011;11064;47.102;15.452;2023-12-20T09:47:04;9.07;;;4.25;;
21804;SDS011;11064;47.102;15.452;2023-12-20T09:49:31;7.55;;;4.25;;
21804;SDS011;11064;47.102;15.452;2023-12-20T09:51:58;10.57;;;4.13;;
21804;SDS011;11064;47.102;15.452;2023-12-20T09:54:27;5.60;;;3.45;;
21804;SDS011;11064;47.102;15.452;2023-12-20T09:56:55;6.63;;;3.80;;
21804;SDS011;11064;47.102;15.452;2023-12-20T09:59:21;6.32;;;3.38;;
21804;SDS011;11064;47.102;15.452;2023-12-20T10:01:47;8.25;;;3.40;;
21804;SDS011;11064;47.102;15.452;2023-12-20T10:04:13;5.80;;;3.58;;
21804;SDS011;11064;47.102;15.452;2023-12-20T10:06:41;5.13;;;3.10;;
21804;SDS011;11064;47.102;15.452;2023-12-20T10:09:08;6.60;;;3.30;;
21804;SDS011;11064;47.102;15.452;2023-12-20T10:11:38;5.00;;;2.80;;
21804;SDS011;11064;47.102;15.452;2023-12-20T10:14:04;8.00;;;3.30;;
21804;SDS011;11064;47.102;15.452;2023-12-20T10:16:31;7.95;;;3.40;;
21804;SDS011;11064;47.102;15.452;2023-12-20T10:18:58;6.85;;;3.85;;
21804;SDS011;11064;47.102;15.452;2023-12-20T10:21:24;7.35;;;3.85;;
21804;SDS011;11064;47.102;15.452;2023-12-20T10:23:54;7.97;;;4.03;;
21804;SDS011;11064;47.102;15.452;2023-12-20T10:26:27;10.18;;;4.75;;
21804;SDS011;11064;47.102;15.452;2023-12-20T10:28:55;11.00;;;4.60;;
21804;SDS011;11064;47.102;15.452;2023-12-20T10:31:31;11.35;;;4.82;;
21804;SDS011;11064;47.102;15.452;2023-12-20T10:33:59;7.05;;;4.40;;
21804;SDS011;11064;47.102;15.452;2023-12-20T10:36:26;8.23;;;4.45;;
21804;SDS011;11064;47.102;15.452;2023-12-20T10:38:54;9.23;;;4.32;;
21804;SDS011;11064;47.102;15.452;2023-12-20T10:43:57;8.50;;;4.85;;
21804;SDS011;11064;47.102;15.452;2023-12-20T10:46:26;8.55;;;4.72;;
21804;SDS011;11064;47.102;15.452;2023-12-20T10:48:54;8.57;;;4.68;;
21804;SDS011;11064;47.102;15.452;2023-12-20T10:51:21;9.05;;;4.43;;
21804;SDS011;11064;47.102;15.452;2023-12-20T10:53:49;10.32;;;5.00;;
21804;SDS011;11064;47.102;15.452;2023-12-20T10:56:16;10.15;;;4.68;;
21804;SDS011;11064;47.102;15.452;2023-12-20T10:58:43;8.65;;;4.63;;
21804;SDS011;11064;47.102;15.452;2023-12-20T11:01:10;6.30;;;4.20;;
21804;SDS011;11064;47.102;15.452;2023-12-20T11:03:39;7.15;;;4.28;;
21804;SDS011;11064;47.102;15.452;2023-12-20T11:11:55;6.95;;;4.20;;
21804;SDS011;11064;47.102;15.452;2023-12-20T11:14:48;8.63;;;4.35;;
21804;SDS011;11064;47.102;15.452;2023-12-20T11:17:22;9.47;;;4.27;;
21804;SDS011;11064;47.102;15.452;2023-12-20T11:22:20;9.80;;;4.28;;
21804;SDS011;11064;47.102;15.452;2023-12-20T11:24:47;8.10;;;4.00;;
21804;SDS011;11064;47.102;15.452;2023-12-20T11:27:14;8.48;;;3.80;;
21804;SDS011;11064;47.102;15.452;2023-12-20T11:29:40;7.28;;;4.20;;
21804;SDS011;11064;47.102;15.452;2023-12-20T11:35:37;9.43;;;4.13;;
21804;SDS011;11064;47.102;15.452;2023-12-20T11:37:38;5.65;;;3.17;;
21804;SDS011;11064;47.102;15.452;2023-12-20T11:40:17;6.00;;;3.70;;
21804;SDS011;11064;47.102;15.452;2023-12-20T11:42:44;5.72;;;3.35;;
21804;SDS011;11064;47.102;15.452;2023-12-20T11:45:15;5.35;;;3.03;;
21804;SDS011;11064;47.102;15.452;2023-12-20T11:47:45;4.57;;;2.90;;
21804;SDS011;11064;47.102;15.452;2023-12-20T11:50:12;3.95;;;2.80;;
21804;SDS011;11064;47.102;15.452;2023-12-20T11:52:38;7.13;;;3.67;;
21804;SDS011;11064;47.102;15.452;2023-12-20T11:55:04;5.55;;;3.40;;
21804;SDS011;11064;47.102;15.452;2023-12-20T11:57:30;7.97;;;3.03;;
21804;SDS011;11064;47.102;15.452;2023-12-20T11:59:57;4.93;;;3.40;;
21804;SDS011;11064;47.102;15.452;2023-12-20T12:02:23;4.93;;;3.08;;
21804;SDS011;11064;47.102;15.452;2023-12-20T12:04:49;4.95;;;3.10;;
21804;SDS011;11064;47.102;15.452;2023-12-20T12:07:18;7.25;;;3.72;;
21804;SDS011;11064;47.102;15.452;2023-12-20T12:09:45;8.00;;;3.75;;
21804;SDS011;11064;47.102;15.452;2023-12-20T12:12:12;8.43;;;5.18;;
21804;SDS011;11064;47.102;15.452;2023-12-20T12:14:38;8.60;;;4.30;;
21804;SDS011;11064;47.102;15.452;2023-12-20T12:17:12;7.10;;;4.00;;
21804;SDS011;11064;47.102;15.452;2023-12-20T12:19:39;8.98;;;4.22;;
21804;SDS011;11064;47.102;15.452;2023-12-20T12:22:06;11.52;;;4.97;;
21804;SDS011;11064;47.102;15.452;2023-12-20T12:24:39;10.55;;;5.38;;
21804;SDS011;11064;47.102;15.452;2023-12-20T12:27:06;11.27;;;5.78;;
21804;SDS011;11064;47.102;15.452;2023-12-20T12:29:33;12.55;;;5.50;;
21804;SDS011;11064;47.102;15.452;2023-12-20T12:31:59;10.90;;;5.50;;
21804;SDS011;11064;47.102;15.452;2023-12-20T12:34:29;8.30;;;4.88;;
21804;SDS011;11064;47.102;15.452;2023-12-20T12:36:56;8.63;;;4.88;;
21804;SDS011;11064;47.102;15.452;2023-12-20T12:39:25;8.30;;;4.43;;
21804;SDS011;11064;47.102;15.452;2023-12-20T12:41:52;8.85;;;4.88;;
21804;SDS011;11064;47.102;15.452;2023-12-20T12:44:18;9.25;;;4.35;;
21804;SDS011;11064;47.102;15.452;2023-12-20T12:46:45;9.00;;;4.30;;
21804;SDS011;11064;47.102;15.452;2023-12-20T12:49:12;7.18;;;4.20;;
21804;SDS011;11064;47.102;15.452;2023-12-20T12:51:38;7.75;;;4.13;;
21804;SDS011;11064;47.102;15.452;2023-12-20T12:54:04;6.20;;;3.50;;
21804;SDS011;11064;47.102;15.452;2023-12-20T12:56:30;6.63;;;3.60;;
21804;SDS011;11064;47.102;15.452;2023-12-20T12:58:56;9.75;;;3.78;;
21804;SDS011;11064;47.102;15.452;2023-12-20T13:01:22;8.30;;;3.92;;
21804;SDS011;11064;47.102;15.452;2023-12-20T13:03:48;11.60;;;4.07;;
21804;SDS011;11064;47.102;15.452;2023-12-20T13:06:13;9.77;;;4.72;;
21804;SDS011;11064;47.102;15.452;2023-12-20T13:08:39;10.98;;;4.85;;
21804;SDS011;11064;47.102;15.452;2023-12-20T13:11:05;9.30;;;4.80;;
21804;SDS011;11064;47.102;15.452;2023-12-20T13:13:31;10.20;;;5.03;;
21804;SDS011;11064;47.102;15.452;2023-12-20T13:15:57;8.00;;;4.40;;
21804;SDS011;11064;47.102;15.452;2023-12-20T13:18:23;10.98;;;4.55;;
21804;SDS011;11064;47.102;15.452;2023-12-20T13:20:49;6.97;;;4.35;;
21804;SDS011;11064;47.102;15.452;2023-12-20T13:23:15;5.82;;;3.22;;
21804;SDS011;11064;47.102;15.452;2023-12-20T13:25:43;6.38;;;4.00;;
21804;SDS011;11064;47.102;15.452;2023-12-20T13:28:12;8.38;;;3.75;;
21804;SDS011;11064;47.102;15.452;2023-12-20T13:30:38;7.70;;;3.58;;
21804;SDS011;11064;47.102;15.452;2023-12-20T13:33:05;6.80;;;3.40;;
21804;SDS011;11064;47.102;15.452;2023-12-20T13:35:31;5.75;;;3.30;;
21804;SDS011;11064;47.102;15.452;2023-12-20T13:37:58;14.10;;;6.47;;
21804;SDS011;11064;47.102;15.452;2023-12-20T13:40:25;8.68;;;4.18;;
21804;SDS011;11064;47.102;15.452;2023-12-20T13:42:51;6.53;;;4.00;;
21804;SDS011;11064;47.102;15.452;2023-12-20T13:45:17;6.25;;;3.53;;
21804;SDS011;11064;47.102;15.452;2023-12-20T13:47:43;8.13;;;3.88;;
21804;SDS011;11064;47.102;15.452;2023-12-20T13:50:09;5.78;;;3.35;;
21804;SDS011;11064;47.102;15.452;2023-12-20T13:52:35;6.63;;;3.70;;
21804;SDS011;11064;47.102;15.452;2023-12-20T13:55:01;7.90;;;3.85;;
21804;SDS011;11064;47.102;15.452;2023-12-20T13:57:27;9.98;;;4.20;;
21804;SDS011;11064;47.102;15.452;2023-12-20T13:59:54;7.22;;;3.90;;
21804;SDS011;11064;47.102;15.452;2023-12-20T14:02:22;8.85;;;4.05;;
21804;SDS011;11064;47.102;15.452;2023-12-20T14:04:48;4.88;;;3.50;;
21804;SDS011;11064;47.102;15.452;2023-12-20T14:07:14;8.40;;;3.38;;
21804;SDS011;11064;47.102;15.452;2023-12-20T14:09:40;5.88;;;3.22;;
21804;SDS011;11064;47.102;15.452;2023-12-20T14:12:13;5.03;;;3.20;;
21804;SDS011;11064;47.102;15.452;2023-12-20T14:14:39;6.47;;;3.05;;
21804;SDS011;11064;47.102;15.452;2023-12-20T14:17:05;6.35;;;4.20;;
21804;SDS011;11064;47.102;15.452;2023-12-20T14:19:31;5.78;;;2.80;;
21804;SDS011;11064;47.102;15.452;2023-12-20T14:21:58;6.30;;;3.13;;
21804;SDS011;11064;47.102;15.452;2023-12-20T14:24:26;4.82;;;2.42;;
21804;SDS011;11064;47.102;15.452;2023-12-20T14:26:52;10.05;;;4.65;;
21804;SDS011;11064;47.102;15.452;2023-12-20T14:29:18;9.05;;;4.20;;
21804;SDS011;11064;47.102;15.452;2023-12-20T14:31:44;7.30;;;4.35;;
21804;SDS011;11064;47.102;15.452;2023-12-20T14:34:10;10.52;;;4.65;;
21804;SDS011;11064;47.102;15.452;2023-12-20T14:36:36;8.38;;;5.28;;
21804;SDS011;11064;47.102;15.452;2023-12-20T14:39:03;8.93;;;5.45;;
21804;SDS011;11064;47.102;15.452;2023-12-20T14:41:29;8.68;;;4.20;;
21804;SDS011;11064;47.102;15.452;2023-12-20T14:43:56;7.32;;;3.28;;
21804;SDS011;11064;47.102;15.452;2023-12-20T14:46:21;6.90;;;3.20;;
21804;SDS011;11064;47.102;15.452;2023-12-20T14:48:47;6.15;;;3.60;;
21804;SDS011;11064;47.102;15.452;2023-12-20T14:51:14;6.65;;;3.60;;
21804;SDS011;11064;47.102;15.452;2023-12-20T14:53:40;6.20;;;3.13;;
21804;SDS011;11064;47.102;15.452;2023-12-20T14:56:07;4.25;;;2.17;;
21804;SDS011;11064;47.102;15.452;2023-12-20T14:58:33;5.88;;;2.88;;
21804;SDS011;11064;47.102;15.452;2023-12-20T15:00:59;6.40;;;3.20;;
21804;SDS011;11064;47.102;15.452;2023-12-20T15:03:26;7.13;;;3.33;;
21804;SDS011;11064;47.102;15.452;2023-12-20T15:05:52;5.32;;;3.22;;
21804;SDS011;11064;47.102;15.452;2023-12-20T15:08:17;5.65;;;2.90;;
21804;SDS011;11064;47.102;15.452;2023-12-20T15:10:43;5.43;;;2.97;;
21804;SDS011;11064;47.102;15.452;2023-12-20T15:13:09;6.63;;;3.20;;
21804;SDS011;11064;47.102;15.452;2023-12-20T15:15:35;4.30;;;2.70;;
21804;SDS011;11064;47.102;15.452;2023-12-20T15:18:02;4.93;;;2.85;;
21804;SDS011;11064;47.102;15.452;2023-12-20T15:20:29;5.00;;;2.80;;
21804;SDS011;11064;47.102;15.452;2023-12-20T15:22:55;5.30;;;3.00;;
21804;SDS011;11064;47.102;15.452;2023-12-20T15:25:23;4.50;;;2.80;;
21804;SDS011;11064;47.102;15.452;2023-12-20T15:27:49;5.35;;;3.00;;
21804;SDS011;11064;47.102;15.452;2023-12-20T15:30:19;8.10;;;3.30;;
21804;SDS011;11064;47.102;15.452;2023-12-20T15:32:45;6.45;;;3.30;;
21804;SDS011;11064;47.102;15.452;2023-12-20T15:35:11;5.47;;;3.33;;
21804;SDS011;11064;47.102;15.452;2023-12-20T15:37:40;7.60;;;3.63;;
21804;SDS011;11064;47.102;15.452;2023-12-20T15:40:08;6.53;;;3.70;;
21804;SDS011;11064;47.102;15.452;2023-12-20T15:42:35;6.70;;;3.13;;
21804;SDS011;11064;47.102;15.452;2023-12-20T15:45:03;8.75;;;2.95;;
21804;SDS011;11064;47.102;15.452;2023-12-20T15:47:29;5.38;;;3.20;;
21804;SDS011;11064;47.102;15.452;2023-12-20T15:49:55;5.70;;;3.13;;
21804;SDS011;11064;47.102;15.452;2023-12-20T15:52:21;9.27;;;2.67;;
21804;SDS011;11064;47.102;15.452;2023-12-20T15:54:47;5.40;;;3.05;;
21804;SDS011;11064;47.102;15.452;2023-12-20T15:57:13;5.22;;;3.38;;
21804;SDS011;11064;47.102;15.452;2023-12-20T15:59:42;9.27;;;4.70;;
21804;SDS011;11064;47.102;15.452;2023-12-20T16:02:08;11.50;;;5.72;;
21804;SDS011;11064;47.102;15.452;2023-12-20T16:04:34;11.95;;;6.00;;
21804;SDS011;11064;47.102;15.452;2023-12-20T16:07:01;10.13;;;5.75;;
21804;SDS011;11064;47.102;15.452;2023-12-20T16:09:27;9.63;;;5.43;;
21804;SDS011;11064;47.102;15.452;2023-12-20T16:11:53;9.27;;;5.20;;
21804;SDS011;11064;47.102;15.452;2023-12-20T16:14:20;9.32;;;5.32;;
21804;SDS011;11064;47.102;15.452;2023-12-20T16:16:49;8.95;;;5.13;;
21804;SDS011;11064;47.102;15.452;2023-12-20T16:19:14;9.30;;;5.63;;
21804;SDS011;11064;47.102;15.452;2023-12-20T16:21:40;11.52;;;5.80;;
21804;SDS011;11064;47.102;15.452;2023-12-20T16:24:06;10.10;;;5.70;;
21804;SDS011;11064;47.102;15.452;2023-12-20T16:26:32;9.13;;;5.70;;
21804;SDS011;11064;47.102;15.452;2023-12-20T16:28:59;9.23;;;5.47;;
21804;SDS011;11064;47.102;15.452;2023-12-20T16:31:25;8.75;;;5.30;;
21804;SDS011;11064;47.102;15.452;2023-12-20T16:33:51;11.07;;;5.50;;
21804;SDS011;11064;47.102;15.452;2023-12-20T16:36:17;17.05;;;9.23;;
21804;SDS011;11064;47.102;15.452;2023-12-20T16:38:43;11.68;;;6.30;;
21804;SDS011;11064;47.102;15.452;2023-12-20T16:41:09;11.73;;;5.47;;
21804;SDS011;11064;47.102;15.452;2023-12-20T16:43:35;10.02;;;5.80;;
21804;SDS011;11064;47.102;15.452;2023-12-20T16:46:01;11.02;;;5.95;;
21804;SDS011;11064;47.102;15.452;2023-12-20T16:48:26;13.20;;;6.35;;
21804;SDS011;11064;47.102;15.452;2023-12-20T16:50:53;13.00;;;6.45;;
21804;SDS011;11064;47.102;15.452;2023-12-20T16:53:19;11.23;;;6.53;;
21804;SDS011;11064;47.102;15.452;2023-12-20T16:55:45;11.57;;;7.00;;
21804;SDS011;11064;47.102;15.452;2023-12-20T16:58:11;12.45;;;6.72;;
21804;SDS011;11064;47.102;15.452;2023-12-20T17:00:38;11.45;;;6.68;;
21804;SDS011;11064;47.102;15.452;2023-12-20T17:03:05;10.88;;;6.18;;
21804;SDS011;11064;47.102;15.452;2023-12-20T17:05:31;12.55;;;6.68;;
21804;SDS011;11064;47.102;15.452;2023-12-20T17:07:57;10.88;;;6.47;;
21804;SDS011;11064;47.102;15.452;2023-12-20T17:10:23;11.52;;;6.65;;
21804;SDS011;11064;47.102;15.452;2023-12-20T17:12:49;13.18;;;7.00;;
21804;SDS011;11064;47.102;15.452;2023-12-20T17:15:14;13.50;;;7.63;;
21804;SDS011;11064;47.102;15.452;2023-12-20T17:17:41;14.07;;;7.97;;
21804;SDS011;11064;47.102;15.452;2023-12-20T17:20:07;14.55;;;8.13;;
21804;SDS011;11064;47.102;15.452;2023-12-20T17:22:33;12.15;;;7.72;;
21804;SDS011;11064;47.102;15.452;2023-12-20T17:24:59;19.60;;;9.15;;
21804;SDS011;11064;47.102;15.452;2023-12-20T17:27:25;17.92;;;9.15;;
21804;SDS011;11064;47.102;15.452;2023-12-20T17:29:50;20.38;;;9.07;;
21804;SDS011;11064;47.102;15.452;2023-12-20T17:32:16;21.00;;;9.15;;
21804;SDS011;11064;47.102;15.452;2023-12-20T17:34:42;16.38;;;9.48;;
21804;SDS011;11064;47.102;15.452;2023-12-20T17:37:08;17.85;;;9.55;;
21804;SDS011;11064;47.102;15.452;2023-12-20T17:39:33;23.45;;;12.30;;
21804;SDS011;11064;47.102;15.452;2023-12-20T17:42:00;24.73;;;13.10;;
21804;SDS011;11064;47.102;15.452;2023-12-20T17:44:26;20.15;;;10.65;;
21804;SDS011;11064;47.102;15.452;2023-12-20T17:46:52;20.88;;;10.90;;
21804;SDS011;11064;47.102;15.452;2023-12-20T17:49:19;15.77;;;10.00;;
21804;SDS011;11064;47.102;15.452;2023-12-20T17:51:46;17.15;;;8.88;;
21804;SDS011;11064;47.102;15.452;2023-12-20T17:54:12;14.32;;;8.02;;
21804;SDS011;11064;47.102;15.452;2023-12-20T17:56:38;15.68;;;8.60;;
21804;SDS011;11064;47.102;15.452;2023-12-20T17:59:04;13.48;;;8.07;;
21804;SDS011;11064;47.102;15.452;2023-12-20T18:01:31;12.80;;;7.13;;
21804;SDS011;11064;47.102;15.452;2023-12-20T18:03:57;13.38;;;8.35;;
21804;SDS011;11064;47.102;15.452;2023-12-20T18:06:23;13.23;;;7.55;;
21804;SDS011;11064;47.102;15.452;2023-12-20T18:08:49;12.75;;;7.25;;
21804;SDS011;11064;47.102;15.452;2023-12-20T18:11:16;15.93;;;7.07;;
21804;SDS011;11064;47.102;15.452;2023-12-20T18:13:42;10.77;;;6.82;;
21804;SDS011;11064;47.102;15.452;2023-12-20T18:16:09;13.98;;;7.30;;
21804;SDS011;11064;47.102;15.452;2023-12-20T18:18:35;12.52;;;7.00;;
21804;SDS011;11064;47.102;15.452;2023-12-20T18:21:02;11.57;;;6.57;;
21804;SDS011;11064;47.102;15.452;2023-12-20T18:23:29;12.43;;;6.80;;
21804;SDS011;11064;47.102;15.452;2023-12-20T18:25:55;10.43;;;6.90;;
21804;SDS011;11064;47.102;15.452;2023-12-20T18:28:24;14.63;;;6.45;;
21804;SDS011;11064;47.102;15.452;2023-12-20T18:30:50;11.07;;;7.15;;
21804;SDS011;11064;47.102;15.452;2023-12-20T18:33:17;12.80;;;7.07;;
21804;SDS011;11064;47.102;15.452;2023-12-20T18:35:43;10.65;;;6.88;;
21804;SDS011;11064;47.102;15.452;2023-12-20T18:38:10;13.55;;;7.35;;
21804;SDS011;11064;47.102;15.452;2023-12-20T18:40:38;10.38;;;6.40;;
21804;SDS011;11064;47.102;15.452;2023-12-20T18:43:10;13.20;;;7.22;;
21804;SDS011;11064;47.102;15.452;2023-12-20T18:45:37;12.13;;;7.28;;
21804;SDS011;11064;47.102;15.452;2023-12-20T18:48:03;11.75;;;7.25;;
21804;SDS011;11064;47.102;15.452;2023-12-20T18:50:30;22.05;;;11.57;;
21804;SDS011;11064;47.102;15.452;2023-12-20T18:52:57;19.33;;;11.65;;
21804;SDS011;11064;47.102;15.452;2023-12-20T18:55:24;16.70;;;9.48;;
21804;SDS011;11064;47.102;15.452;2023-12-20T18:57:50;17.38;;;8.50;;
21804;SDS011;11064;47.102;15.452;2023-12-20T19:00:17;13.48;;;7.60;;
21804;SDS011;11064;47.102;15.452;2023-12-20T19:02:43;15.82;;;7.78;;
21804;SDS011;11064;47.102;15.452;2023-12-20T19:05:10;14.40;;;8.15;;
21804;SDS011;11064;47.102;15.452;2023-12-20T19:07:37;12.00;;;7.43;;
21804;SDS011;11064;47.102;15.452;2023-12-20T19:10:04;14.07;;;8.27;;
21804;SDS011;11064;47.102;15.452;2023-12-20T19:12:31;11.57;;;7.30;;
21804;SDS011;11064;47.102;15.452;2023-12-20T19:14:58;12.40;;;7.75;;
21804;SDS011;11064;47.102;15.452;2023-12-20T19:17:24;13.73;;;7.60;;
21804;SDS011;11064;47.102;15.452;2023-12-20T19:19:50;12.38;;;7.63;;
21804;SDS011;11064;47.102;15.452;2023-12-20T19:22:17;13.18;;;7.68;;
21804;SDS011;11064;47.102;15.452;2023-12-20T19:24:43;13.25;;;8.35;;
21804;SDS011;11064;47.102;15.452;2023-12-20T19:27:10;11.73;;;7.20;;
21804;SDS011;11064;47.102;15.452;2023-12-20T19:29:37;15.88;;;7.63;;
21804;SDS011;11064;47.102;15.452;2023-12-20T19:32:03;13.10;;;7.07;;
21804;SDS011;11064;47.102;15.452;2023-12-20T19:34:31;13.38;;;7.40;;
21804;SDS011;11064;47.102;15.452;2023-12-20T19:36:58;11.05;;;6.55;;
21804;SDS011;11064;47.102;15.452;2023-12-20T19:39:24;12.93;;;7.53;;
21804;SDS011;11064;47.102;15.452;2023-12-20T19:41:51;10.65;;;6.85;;